sensor_id;sensor_type;location;lat;lon;timestamp;pressure;altitude;pressure_sealevel;temperature;humidity
26436;BME280;15351;52.408;16.826;2023-02-25T00:01:12;98619.61;;;5.39;78.19
26436;BME280;15351;52.408;16.826;2023-02-25T00:03:44;98615.84;;;5.40;78.22
26436;BME280;15351;52.408;16.826;2023-02-25T00:06:13;98613.94;;;5.39;78.32
26436;BME280;15351;52.408;16.826;2023-02-25T00:08:44;98606.50;;;5.36;78.33
26436;BME280;15351;52.408;16.826;2023-02-25T00:11:13;98599.86;;;5.38;78.38
26436;BME280;15351;52.408;16.826;2023-02-25T00:13:41;98593.27;;;5.40;78.55
26436;BME280;15351;52.408;16.826;2023-02-25T00:16:08;98588.72;;;5.46;78.71
26436;BME280;15351;52.408;16.826;2023-02-25T00:18:36;98585.62;;;5.50;78.77
26436;BME280;15351;52.408;16.826;2023-02-25T00:21:07;98584.27;;;5.50;78.66
26436;BME280;15351;52.408;16.826;2023-02-25T00:23:46;98576.92;;;5.49;78.58
26436;BME280;15351;52.408;16.826;2023-02-25T00:26:14;98576.39;;;5.49;78.58
26436;BME280;15351;52.408;16.826;2023-02-25T00:28:42;98571.98;;;5.48;78.84
26436;BME280;15351;52.408;16.826;2023-02-25T00:31:12;98564.52;;;5.48;78.77
26436;BME280;15351;52.408;16.826;2023-02-25T00:33:40;98564.44;;;5.50;78.75
26436;BME280;15351;52.408;16.826;2023-02-25T00:36:13;98562.05;;;5.50;78.79
26436;BME280;15351;52.408;16.826;2023-02-25T00:38:46;98561.81;;;5.50;78.99
26436;BME280;15351;52.408;16.826;2023-02-25T00:41:19;98553.53;;;5.53;79.05
26436;BME280;15351;52.408;16.826;2023-02-25T00:43:58;98549.92;;;5.50;78.94
26436;BME280;15351;52.408;16.826;2023-02-25T00:46:26;98548.61;;;5.55;79.12
26436;BME280;15351;52.408;16.826;2023-02-25T00:48:53;98544.03;;;5.59;78.92
26436;BME280;15351;52.408;16.826;2023-02-25T00:51:24;98540.80;;;5.61;78.92
26436;BME280;15351;52.408;16.826;2023-02-25T00:53:52;98537.22;;;5.60;78.97
26436;BME280;15351;52.408;16.826;2023-02-25T00:56:27;98537.10;;;5.61;78.92
26436;BME280;15351;52.408;16.826;2023-02-25T00:58:54;98534.86;;;5.68;79.13
26436;BME280;15351;52.408;16.826;2023-02-25T01:01:31;98534.77;;;5.67;79.02
26436;BME280;15351;52.408;16.826;2023-02-25T01:03:59;98529.58;;;5.63;79.29
26436;BME280;15351;52.408;16.826;2023-02-25T01:06:27;98527.42;;;5.65;79.36
26436;BME280;15351;52.408;16.826;2023-02-25T01:08:58;98525.74;;;5.66;79.40
26436;BME280;15351;52.408;16.826;2023-02-25T01:11:31;98524.48;;;5.64;79.45
26436;BME280;15351;52.408;16.826;2023-02-25T01:14:04;98521.94;;;5.64;79.36
26436;BME280;15351;52.408;16.826;2023-02-25T01:16:35;98514.45;;;5.67;79.59
26436;BME280;15351;52.408;16.826;2023-02-25T01:19:06;98515.95;;;5.72;79.55
26436;BME280;15351;52.408;16.826;2023-02-25T01:21:43;98513.58;;;5.74;79.39
26436;BME280;15351;52.408;16.826;2023-02-25T01:24:13;98507.92;;;5.72;79.20
26436;BME280;15351;52.408;16.826;2023-02-25T01:26:41;98499.89;;;5.71;79.34
26436;BME280;15351;52.408;16.826;2023-02-25T01:29:11;98495.33;;;5.72;79.41
26436;BME280;15351;52.408;16.826;2023-02-25T01:31:38;98493.83;;;5.75;79.19
26436;BME280;15351;52.408;16.826;2023-02-25T01:34:09;98493.77;;;5.73;79.06
26436;BME280;15351;52.408;16.826;2023-02-25T01:36:41;98492.11;;;5.76;79.17
26436;BME280;15351;52.408;16.826;2023-02-25T01:39:08;98492.58;;;5.78;79.05
26436;BME280;15351;52.408;16.826;2023-02-25T01:41:36;98486.88;;;5.79;79.00
26436;BME280;15351;52.408;16.826;2023-02-25T01:46:40;98482.52;;;5.80;78.78
26436;BME280;15351;52.408;16.826;2023-02-25T01:49:37;98479.33;;;5.80;78.79
26436;BME280;15351;52.408;16.826;2023-02-25T01:52:13;98473.38;;;5.81;78.88
26436;BME280;15351;52.408;16.826;2023-02-25T01:54:43;98471.07;;;5.80;78.76
26436;BME280;15351;52.408;16.826;2023-02-25T01:57:12;98472.73;;;5.78;78.64
26436;BME280;15351;52.408;16.826;2023-02-25T01:59:42;98462.48;;;5.73;78.46
26436;BME280;15351;52.408;16.826;2023-02-25T02:02:14;98461.04;;;5.75;78.79
26436;BME280;15351;52.408;16.826;2023-02-25T02:04:43;98453.19;;;5.80;78.78
26436;BME280;15351;52.408;16.826;2023-02-25T02:07:10;98452.09;;;5.87;78.58
26436;BME280;15351;52.408;16.826;2023-02-25T02:09:37;98447.15;;;5.86;78.49
26436;BME280;15351;52.408;16.826;2023-02-25T02:12:05;98440.59;;;5.82;78.45
26436;BME280;15351;52.408;16.826;2023-02-25T02:14:40;98438.11;;;5.80;78.58
26436;BME280;15351;52.408;16.826;2023-02-25T02:17:23;98434.44;;;5.80;78.77
26436;BME280;15351;52.408;16.826;2023-02-25T02:22:32;98436.15;;;5.84;78.54
26436;BME280;15351;52.408;16.826;2023-02-25T02:28:18;98424.41;;;5.81;78.63
26436;BME280;15351;52.408;16.826;2023-02-25T02:31:13;98421.83;;;5.85;78.65
26436;BME280;15351;52.408;16.826;2023-02-25T02:36:57;98419.92;;;5.89;78.39
26436;BME280;15351;52.408;16.826;2023-02-25T02:39:37;98417.29;;;5.89;78.50
26436;BME280;15351;52.408;16.826;2023-02-25T02:42:34;98409.79;;;5.88;78.27
26436;BME280;15351;52.408;16.826;2023-02-25T02:45:12;98407.26;;;5.83;78.21
26436;BME280;15351;52.408;16.826;2023-02-25T02:47:47;98401.74;;;5.78;78.26
26436;BME280;15351;52.408;16.826;2023-02-25T02:50:30;98397.11;;;5.77;78.34
26436;BME280;15351;52.408;16.826;2023-02-25T02:53:06;98393.73;;;5.80;78.62
26436;BME280;15351;52.408;16.826;2023-02-25T02:55:40;98391.36;;;5.87;78.52
26436;BME280;15351;52.408;16.826;2023-02-25T02:58:12;98389.19;;;5.91;78.37
26436;BME280;15351;52.408;16.826;2023-02-25T03:00:45;98386.51;;;5.88;78.11
26436;BME280;15351;52.408;16.826;2023-02-25T03:03:18;98388.05;;;5.85;78.27
26436;BME280;15351;52.408;16.826;2023-02-25T03:05:50;98391.04;;;5.91;78.38
26436;BME280;15351;52.408;16.826;2023-02-25T03:08:27;98388.29;;;5.91;78.14
26436;BME280;15351;52.408;16.826;2023-02-25T03:10:56;98387.77;;;5.88;78.04
26436;BME280;15351;52.408;16.826;2023-02-25T03:13:25;98388.67;;;5.86;78.21
26436;BME280;15351;52.408;16.826;2023-02-25T03:15:54;98386.45;;;5.86;78.40
26436;BME280;15351;52.408;16.826;2023-02-25T03:18:32;98388.52;;;5.88;78.36
26436;BME280;15351;52.408;16.826;2023-02-25T03:21:03;98385.20;;;5.90;78.35
26436;BME280;15351;52.408;16.826;2023-02-25T03:23:34;98383.80;;;5.90;78.10
26436;BME280;15351;52.408;16.826;2023-02-25T03:26:26;98381.18;;;5.87;78.25
26436;BME280;15351;52.408;16.826;2023-02-25T03:28:57;98378.86;;;5.92;78.45
26436;BME280;15351;52.408;16.826;2023-02-25T03:31:28;98382.03;;;5.92;78.23
26436;BME280;15351;52.408;16.826;2023-02-25T03:34:10;98382.06;;;5.90;78.18
26436;BME280;15351;52.408;16.826;2023-02-25T03:36:42;98376.48;;;5.87;78.28
26436;BME280;15351;52.408;16.826;2023-02-25T03:39:23;98377.46;;;5.91;78.47
26436;BME280;15351;52.408;16.826;2023-02-25T03:41:56;98374.94;;;5.90;78.47
26436;BME280;15351;52.408;16.826;2023-02-25T03:44:30;98373.05;;;5.89;78.59
26436;BME280;15351;52.408;16.826;2023-02-25T03:47:02;98370.36;;;5.85;78.55
26436;BME280;15351;52.408;16.826;2023-02-25T03:49:34;98373.89;;;5.83;78.78
26436;BME280;15351;52.408;16.826;2023-02-25T03:52:05;98371.22;;;5.84;79.13
26436;BME280;15351;52.408;16.826;2023-02-25T03:54:38;98373.77;;;5.85;79.14
26436;BME280;15351;52.408;16.826;2023-02-25T03:57:04;98370.98;;;5.79;79.22
26436;BME280;15351;52.408;16.826;2023-02-25T03:59:31;98371.58;;;5.73;79.34
26436;BME280;15351;52.408;16.826;2023-02-25T04:01:59;98370.58;;;5.69;79.60
26436;BME280;15351;52.408;16.826;2023-02-25T04:04:28;98366.54;;;5.68;79.68
26436;BME280;15351;52.408;16.826;2023-02-25T04:06:55;98369.40;;;5.72;80.05
26436;BME280;15351;52.408;16.826;2023-02-25T04:09:24;98369.11;;;5.73;79.99
26436;BME280;15351;52.408;16.826;2023-02-25T04:11:51;98369.95;;;5.68;80.13
26436;BME280;15351;52.408;16.826;2023-02-25T04:14:23;98369.26;;;5.62;80.06
26436;BME280;15351;52.408;16.826;2023-02-25T04:16:50;98372.48;;;5.55;80.16
26436;BME280;15351;52.408;16.826;2023-02-25T04:19:17;98371.39;;;5.50;80.30
26436;BME280;15351;52.408;16.826;2023-02-25T04:21:43;98366.08;;;5.49;80.58
26436;BME280;15351;52.408;16.826;2023-02-25T04:24:10;98367.23;;;5.48;80.60
26436;BME280;15351;52.408;16.826;2023-02-25T04:26:36;98369.55;;;5.44;80.67
26436;BME280;15351;52.408;16.826;2023-02-25T04:29:03;98375.07;;;5.39;80.73
26436;BME280;15351;52.408;16.826;2023-02-25T04:31:29;98373.27;;;5.32;80.83
26436;BME280;15351;52.408;16.826;2023-02-25T04:33:55;98375.75;;;5.28;81.02
26436;BME280;15351;52.408;16.826;2023-02-25T04:36:31;98374.04;;;5.25;81.06
26436;BME280;15351;52.408;16.826;2023-02-25T04:39:00;98378.11;;;5.24;81.23
26436;BME280;15351;52.408;16.826;2023-02-25T04:41:31;98378.23;;;5.24;81.35
26436;BME280;15351;52.408;16.826;2023-02-25T04:43:59;98373.75;;;5.23;81.46
26436;BME280;15351;52.408;16.826;2023-02-25T04:46:26;98376.79;;;5.24;81.53
26436;BME280;15351;52.408;16.826;2023-02-25T04:48:52;98372.33;;;5.20;81.38
26436;BME280;15351;52.408;16.826;2023-02-25T04:51:20;98374.16;;;5.15;81.38
26436;BME280;15351;52.408;16.826;2023-02-25T04:53:47;98371.48;;;5.17;81.33
26436;BME280;15351;52.408;16.826;2023-02-25T04:56:13;98368.15;;;5.15;81.47
26436;BME280;15351;52.408;16.826;2023-02-25T04:58:40;98365.27;;;5.18;81.73
26436;BME280;15351;52.408;16.826;2023-02-25T05:01:07;98361.85;;;5.22;81.56
26436;BME280;15351;52.408;16.826;2023-02-25T05:03:35;98363.13;;;5.17;81.44
26436;BME280;15351;52.408;16.826;2023-02-25T05:06:03;98363.57;;;5.13;81.56
26436;BME280;15351;52.408;16.826;2023-02-25T05:08:31;98358.30;;;5.07;81.63
26436;BME280;15351;52.408;16.826;2023-02-25T05:10:59;98359.56;;;5.05;81.73
26436;BME280;15351;52.408;16.826;2023-02-25T05:13:27;98356.98;;;5.02;81.85
26436;BME280;15351;52.408;16.826;2023-02-25T05:16:09;98354.80;;;4.99;81.71
26436;BME280;15351;52.408;16.826;2023-02-25T05:18:40;98356.38;;;4.96;81.72
26436;BME280;15351;52.408;16.826;2023-02-25T05:21:09;98354.74;;;4.98;82.02
26436;BME280;15351;52.408;16.826;2023-02-25T05:23:40;98357.70;;;5.01;81.89
26436;BME280;15351;52.408;16.826;2023-02-25T05:26:07;98357.14;;;5.02;81.97
26436;BME280;15351;52.408;16.826;2023-02-25T05:28:34;98357.93;;;4.98;81.84
26436;BME280;15351;52.408;16.826;2023-02-25T05:31:06;98357.43;;;4.88;81.61
26436;BME280;15351;52.408;16.826;2023-02-25T05:33:36;98359.81;;;4.85;81.83
26436;BME280;15351;52.408;16.826;2023-02-25T05:36:09;98356.09;;;4.86;82.08
26436;BME280;15351;52.408;16.826;2023-02-25T05:38:36;98360.15;;;4.89;82.28
26436;BME280;15351;52.408;16.826;2023-02-25T05:41:07;98365.00;;;4.90;82.12
26436;BME280;15351;52.408;16.826;2023-02-25T05:43:37;98367.77;;;4.85;82.14
26436;BME280;15351;52.408;16.826;2023-02-25T05:46:05;98367.47;;;4.86;82.45
26436;BME280;15351;52.408;16.826;2023-02-25T05:48:37;98366.16;;;4.91;82.32
26436;BME280;15351;52.408;16.826;2023-02-25T05:51:07;98368.83;;;4.90;82.32
26436;BME280;15351;52.408;16.826;2023-02-25T05:53:35;98366.81;;;4.86;82.15
26436;BME280;15351;52.408;16.826;2023-02-25T05:56:06;98372.12;;;4.81;82.32
26436;BME280;15351;52.408;16.826;2023-02-25T05:58:34;98375.53;;;4.80;82.45
26436;BME280;15351;52.408;16.826;2023-02-25T06:01:18;98378.27;;;4.80;82.30
26436;BME280;15351;52.408;16.826;2023-02-25T06:03:48;98378.99;;;4.77;82.42
26436;BME280;15351;52.408;16.826;2023-02-25T06:06:16;98383.17;;;4.81;82.68
26436;BME280;15351;52.408;16.826;2023-02-25T06:08:45;98381.02;;;4.80;82.48
26436;BME280;15351;52.408;16.826;2023-02-25T06:11:17;98382.17;;;4.74;82.44
26436;BME280;15351;52.408;16.826;2023-02-25T06:13:46;98381.71;;;4.69;82.57
26436;BME280;15351;52.408;16.826;2023-02-25T06:16:13;98384.89;;;4.71;82.79
26436;BME280;15351;52.408;16.826;2023-02-25T06:18:40;98390.01;;;4.79;82.96
26436;BME280;15351;52.408;16.826;2023-02-25T06:21:10;98389.05;;;4.80;82.57
26436;BME280;15351;52.408;16.826;2023-02-25T06:23:39;98389.98;;;4.80;82.71
26436;BME280;15351;52.408;16.826;2023-02-25T06:26:08;98394.30;;;4.81;82.54
26436;BME280;15351;52.408;16.826;2023-02-25T06:28:39;98400.84;;;4.81;82.57
26436;BME280;15351;52.408;16.826;2023-02-25T06:31:12;98402.58;;;4.78;82.52
26436;BME280;15351;52.408;16.826;2023-02-25T06:33:44;98405.22;;;4.79;82.53
26436;BME280;15351;52.408;16.826;2023-02-25T06:36:13;98406.55;;;4.83;82.44
26436;BME280;15351;52.408;16.826;2023-02-25T06:38:40;98408.05;;;4.85;82.41
26436;BME280;15351;52.408;16.826;2023-02-25T06:41:12;98411.63;;;4.83;82.35
26436;BME280;15351;52.408;16.826;2023-02-25T06:43:40;98415.48;;;4.82;82.31
26436;BME280;15351;52.408;16.826;2023-02-25T06:46:11;98417.14;;;4.86;82.32
26436;BME280;15351;52.408;16.826;2023-02-25T06:48:39;98422.02;;;4.83;82.08
26436;BME280;15351;52.408;16.826;2023-02-25T06:51:05;98423.52;;;4.77;81.95
26436;BME280;15351;52.408;16.826;2023-02-25T06:53:36;98426.41;;;4.79;82.31
26436;BME280;15351;52.408;16.826;2023-02-25T06:56:03;98430.61;;;4.86;82.51
26436;BME280;15351;52.408;16.826;2023-02-25T06:58:30;98434.86;;;4.97;82.49
26436;BME280;15351;52.408;16.826;2023-02-25T07:00:58;98435.09;;;4.99;82.26
26436;BME280;15351;52.408;16.826;2023-02-25T07:03:25;98437.79;;;5.03;82.24
26436;BME280;15351;52.408;16.826;2023-02-25T07:05:51;98440.98;;;5.06;82.15
26436;BME280;15351;52.408;16.826;2023-02-25T07:08:18;98443.80;;;5.05;82.04
26436;BME280;15351;52.408;16.826;2023-02-25T07:10:44;98444.70;;;5.05;82.24
26436;BME280;15351;52.408;16.826;2023-02-25T07:13:12;98442.83;;;5.13;82.36
26436;BME280;15351;52.408;16.826;2023-02-25T07:15:38;98442.80;;;5.18;82.12
26436;BME280;15351;52.408;16.826;2023-02-25T07:18:04;98442.70;;;5.14;81.90
26436;BME280;15351;52.408;16.826;2023-02-25T07:20:32;98449.98;;;5.14;82.01
26436;BME280;15351;52.408;16.826;2023-02-25T07:23:02;98451.07;;;5.16;82.30
26436;BME280;15351;52.408;16.826;2023-02-25T07:25:30;98456.13;;;5.19;81.96
26436;BME280;15351;52.408;16.826;2023-02-25T07:27:56;98453.37;;;5.16;81.98
26436;BME280;15351;52.408;16.826;2023-02-25T07:30:23;98457.74;;;5.21;82.21
26436;BME280;15351;52.408;16.826;2023-02-25T07:32:52;98458.02;;;5.28;82.03
26436;BME280;15351;52.408;16.826;2023-02-25T07:35:28;98462.18;;;5.29;82.23
26436;BME280;15351;52.408;16.826;2023-02-25T07:37:55;98463.89;;;5.39;82.21
26436;BME280;15351;52.408;16.826;2023-02-25T07:40:28;98462.44;;;5.46;81.85
26436;BME280;15351;52.408;16.826;2023-02-25T07:42:57;98468.11;;;5.47;81.76
26436;BME280;15351;52.408;16.826;2023-02-25T07:45:27;98469.98;;;5.51;81.68
26436;BME280;15351;52.408;16.826;2023-02-25T07:47:54;98471.92;;;5.53;81.37
26436;BME280;15351;52.408;16.826;2023-02-25T07:50:27;98473.52;;;5.57;81.36
26436;BME280;15351;52.408;16.826;2023-02-25T07:52:53;98475.17;;;5.58;81.09
26436;BME280;15351;52.408;16.826;2023-02-25T07:55:21;98481.21;;;5.51;81.14
26436;BME280;15351;52.408;16.826;2023-02-25T07:57:48;98478.20;;;5.51;81.24
26436;BME280;15351;52.408;16.826;2023-02-25T08:00:16;98483.34;;;5.55;81.58
26436;BME280;15351;52.408;16.826;2023-02-25T08:02:45;98484.73;;;5.64;81.65
26436;BME280;15351;52.408;16.826;2023-02-25T08:05:13;98483.10;;;5.71;81.61
26436;BME280;15351;52.408;16.826;2023-02-25T08:07:40;98483.88;;;5.79;81.59
26436;BME280;15351;52.408;16.826;2023-02-25T08:10:10;98485.62;;;5.86;81.65
26436;BME280;15351;52.408;16.826;2023-02-25T08:12:36;98485.29;;;5.91;81.70
26436;BME280;15351;52.408;16.826;2023-02-25T08:15:06;98488.34;;;5.95;81.57
26436;BME280;15351;52.408;16.826;2023-02-25T08:17:34;98493.33;;;6.00;81.49
26436;BME280;15351;52.408;16.826;2023-02-25T08:20:02;98496.52;;;5.99;81.04
26436;BME280;15351;52.408;16.826;2023-02-25T08:22:32;98502.64;;;5.96;81.16
26436;BME280;15351;52.408;16.826;2023-02-25T08:25:08;98500.27;;;5.98;81.19
26436;BME280;15351;52.408;16.826;2023-02-25T08:27:37;98503.90;;;6.01;80.79
26436;BME280;15351;52.408;16.826;2023-02-25T08:30:04;98507.02;;;6.00;80.82
26436;BME280;15351;52.408;16.826;2023-02-25T08:32:53;98507.36;;;5.93;80.72
26436;BME280;15351;52.408;16.826;2023-02-25T08:35:19;98510.00;;;5.93;80.86
26436;BME280;15351;52.408;16.826;2023-02-25T08:37:46;98512.83;;;5.95;80.61
26436;BME280;15351;52.408;16.826;2023-02-25T08:40:13;98514.31;;;5.95;80.60
26436;BME280;15351;52.408;16.826;2023-02-25T08:42:41;98512.45;;;5.95;80.55
26436;BME280;15351;52.408;16.826;2023-02-25T08:45:09;98515.70;;;5.94;80.73
26436;BME280;15351;52.408;16.826;2023-02-25T08:47:38;98516.19;;;5.95;80.74
26436;BME280;15351;52.408;16.826;2023-02-25T08:50:06;98518.45;;;6.04;80.90
26436;BME280;15351;52.408;16.826;2023-02-25T08:52:35;98521.09;;;6.09;80.91
26436;BME280;15351;52.408;16.826;2023-02-25T08:55:02;98529.14;;;6.16;81.07
26436;BME280;15351;52.408;16.826;2023-02-25T08:57:30;98530.69;;;6.21;80.98
26436;BME280;15351;52.408;16.826;2023-02-25T09:00:00;98532.82;;;6.20;80.91
26436;BME280;15351;52.408;16.826;2023-02-25T09:02:27;98532.33;;;6.24;81.00
26436;BME280;15351;52.408;16.826;2023-02-25T09:04:53;98534.99;;;6.35;81.19
26436;BME280;15351;52.408;16.826;2023-02-25T09:07:30;98536.42;;;6.49;81.31
26436;BME280;15351;52.408;16.826;2023-02-25T09:09:57;98537.34;;;6.63;81.45
26436;BME280;15351;52.408;16.826;2023-02-25T09:12:23;98541.30;;;6.72;80.86
26436;BME280;15351;52.408;16.826;2023-02-25T09:14:52;98541.92;;;6.77;80.42
26436;BME280;15351;52.408;16.826;2023-02-25T09:17:19;98544.88;;;6.75;80.27
26436;BME280;15351;52.408;16.826;2023-02-25T09:19:46;98548.79;;;6.70;80.01
26436;BME280;15351;52.408;16.826;2023-02-25T09:22:13;98550.64;;;6.63;79.86
26436;BME280;15351;52.408;16.826;2023-02-25T09:24:40;98554.07;;;6.52;79.68
26436;BME280;15351;52.408;16.826;2023-02-25T09:27:16;98558.72;;;6.51;79.63
26436;BME280;15351;52.408;16.826;2023-02-25T09:29:46;98558.12;;;6.42;79.40
26436;BME280;15351;52.408;16.826;2023-02-25T09:32:19;98558.14;;;6.34;79.66
26436;BME280;15351;52.408;16.826;2023-02-25T09:34:56;98559.89;;;6.41;79.90
26436;BME280;15351;52.408;16.826;2023-02-25T09:37:29;98563.41;;;6.50;79.89
26436;BME280;15351;52.408;16.826;2023-02-25T09:39:56;98562.24;;;6.58;79.84
26436;BME280;15351;52.408;16.826;2023-02-25T09:42:51;98561.20;;;6.58;79.64
26436;BME280;15351;52.408;16.826;2023-02-25T09:45:20;98570.48;;;6.58;79.76
26436;BME280;15351;52.408;16.826;2023-02-25T09:47:58;98572.70;;;6.62;80.07
26436;BME280;15351;52.408;16.826;2023-02-25T09:50:38;98572.77;;;6.74;80.04
26436;BME280;15351;52.408;16.826;2023-02-25T09:53:20;98573.27;;;6.82;80.06
26436;BME280;15351;52.408;16.826;2023-02-25T09:55:51;98574.46;;;6.83;79.78
26436;BME280;15351;52.408;16.826;2023-02-25T09:58:33;98574.91;;;6.87;79.88
26436;BME280;15351;52.408;16.826;2023-02-25T10:01:35;98573.48;;;6.97;79.92
26436;BME280;15351;52.408;16.826;2023-02-25T10:04:35;98575.45;;;6.97;79.10
26436;BME280;15351;52.408;16.826;2023-02-25T10:07:47;98577.53;;;6.90;79.02
26436;BME280;15351;52.408;16.826;2023-02-25T10:10:23;98577.79;;;6.94;79.08
26436;BME280;15351;52.408;16.826;2023-02-25T10:13:20;98584.27;;;6.88;78.42
26436;BME280;15351;52.408;16.826;2023-02-25T10:16:14;98588.19;;;6.88;78.75
26436;BME280;15351;52.408;16.826;2023-02-25T10:19:12;98587.95;;;6.96;78.83
26436;BME280;15351;52.408;16.826;2023-02-25T10:25:24;98599.58;;;6.98;78.77
26436;BME280;15351;52.408;16.826;2023-02-25T10:28:14;98604.98;;;7.04;78.62
26436;BME280;15351;52.408;16.826;2023-02-25T10:30:55;98611.73;;;7.08;78.61
26436;BME280;15351;52.408;16.826;2023-02-25T10:33:49;98613.35;;;7.11;78.54
26436;BME280;15351;52.408;16.826;2023-02-25T10:36:24;98613.69;;;7.12;78.47
26436;BME280;15351;52.408;16.826;2023-02-25T10:38:53;98614.80;;;7.16;78.28
26436;BME280;15351;52.408;16.826;2023-02-25T10:41:26;98617.45;;;7.15;78.19
26436;BME280;15351;52.408;16.826;2023-02-25T10:44:08;98618.84;;;7.13;78.15
26436;BME280;15351;52.408;16.826;2023-02-25T10:46:41;98610.78;;;7.07;78.07
26436;BME280;15351;52.408;16.826;2023-02-25T10:49:16;98618.05;;;7.11;78.06
26436;BME280;15351;52.408;16.826;2023-02-25T10:54:44;98618.42;;;7.12;77.84
26436;BME280;15351;52.408;16.826;2023-02-25T10:57:48;98620.17;;;7.16;77.93
26436;BME280;15351;52.408;16.826;2023-02-25T11:00:44;98623.77;;;7.19;77.47
26436;BME280;15351;52.408;16.826;2023-02-25T11:03:30;98625.19;;;7.24;77.53
26436;BME280;15351;52.408;16.826;2023-02-25T11:08:43;98622.38;;;7.34;77.84
26436;BME280;15351;52.408;16.826;2023-02-25T11:11:23;98625.02;;;7.55;78.25
26436;BME280;15351;52.408;16.826;2023-02-25T11:14:16;98622.23;;;7.78;78.16
26436;BME280;15351;52.408;16.826;2023-02-25T11:20:21;98624.53;;;7.92;77.40
26436;BME280;15351;52.408;16.826;2023-02-25T11:22:55;98630.77;;;7.92;77.08
26436;BME280;15351;52.408;16.826;2023-02-25T11:25:37;98630.40;;;7.93;76.74
26436;BME280;15351;52.408;16.826;2023-02-25T11:28:38;98636.34;;;7.90;76.58
26436;BME280;15351;52.408;16.826;2023-02-25T11:31:32;98641.05;;;7.86;76.71
26436;BME280;15351;52.408;16.826;2023-02-25T11:34:11;98639.80;;;7.89;76.76
26436;BME280;15351;52.408;16.826;2023-02-25T11:36:42;98640.59;;;7.85;76.25
26436;BME280;15351;52.408;16.826;2023-02-25T11:39:22;98644.84;;;7.83;76.02
26436;BME280;15351;52.408;16.826;2023-02-25T11:41:54;98646.62;;;7.76;75.76
26436;BME280;15351;52.408;16.826;2023-02-25T11:44:41;98652.64;;;7.75;76.22
26436;BME280;15351;52.408;16.826;2023-02-25T11:47:29;98653.60;;;7.79;76.13
26436;BME280;15351;52.408;16.826;2023-02-25T11:50:22;98658.92;;;7.77;75.90
26436;BME280;15351;52.408;16.826;2023-02-25T11:56:09;98667.66;;;7.71;75.23
26436;BME280;15351;52.408;16.826;2023-02-25T11:59:25;98676.64;;;7.67;75.39
26436;BME280;15351;52.408;16.826;2023-02-25T12:05:14;98690.19;;;7.63;74.77
26436;BME280;15351;52.408;16.826;2023-02-25T12:08:22;98692.73;;;7.57;74.97
26436;BME280;15351;52.408;16.826;2023-02-25T12:11:53;98698.43;;;7.51;75.40
26436;BME280;15351;52.408;16.826;2023-02-25T12:23:22;98724.30;;;7.32;75.55
26436;BME280;15351;52.408;16.826;2023-02-25T12:37:31;98760.84;;;7.01;76.15
26436;BME280;15351;52.408;16.826;2023-02-25T12:46:26;98779.61;;;7.04;76.45
26436;BME280;15351;52.408;16.826;2023-02-25T12:49:30;98792.45;;;7.12;76.41
26436;BME280;15351;52.408;16.826;2023-02-25T13:01:50;98816.06;;;6.95;75.61
26436;BME280;15351;52.408;16.826;2023-02-25T15:35:01;99155.80;;;6.27;75.98
26436;BME280;15351;52.408;16.826;2023-02-25T15:49:44;99200.70;;;6.12;75.20
26436;BME280;15351;52.408;16.826;2023-02-25T15:52:47;99207.27;;;6.07;75.13
26436;BME280;15351;52.408;16.826;2023-02-25T15:55:38;99219.34;;;6.03;75.16
26436;BME280;15351;52.408;16.826;2023-02-25T16:06:17;99247.54;;;5.86;75.30
26436;BME280;15351;52.408;16.826;2023-02-25T16:08:53;99255.92;;;5.83;75.29
26436;BME280;15351;52.408;16.826;2023-02-25T16:11:36;99263.30;;;5.81;75.34
26436;BME280;15351;52.408;16.826;2023-02-25T16:14:33;99263.48;;;5.82;75.29
26436;BME280;15351;52.408;16.826;2023-02-25T16:17:31;99273.05;;;5.83;75.12
26436;BME280;15351;52.408;16.826;2023-02-25T16:22:36;99282.71;;;5.78;74.96
26436;BME280;15351;52.408;16.826;2023-02-25T16:25:03;99294.42;;;5.78;74.95
26436;BME280;15351;52.408;16.826;2023-02-25T16:31:22;99305.20;;;5.74;74.41
26436;BME280;15351;52.408;16.826;2023-02-25T16:33:49;99310.30;;;5.69;74.12
26436;BME280;15351;52.408;16.826;2023-02-25T16:36:35;99318.70;;;5.66;74.26
26436;BME280;15351;52.408;16.826;2023-02-25T16:39:33;99320.91;;;5.62;74.13
26436;BME280;15351;52.408;16.826;2023-02-25T16:42:13;99333.89;;;5.61;73.94
26436;BME280;15351;52.408;16.826;2023-02-25T16:45:02;99341.18;;;5.59;73.52
26436;BME280;15351;52.408;16.826;2023-02-25T16:47:35;99339.30;;;5.54;73.66
26436;BME280;15351;52.408;16.826;2023-02-25T16:50:13;99347.67;;;5.51;73.65
26436;BME280;15351;52.408;16.826;2023-02-25T16:53:02;99353.86;;;5.49;73.22
26436;BME280;15351;52.408;16.826;2023-02-25T16:55:38;99363.75;;;5.50;72.99
26436;BME280;15351;52.408;16.826;2023-02-25T16:58:28;99365.43;;;5.49;73.00
26436;BME280;15351;52.408;16.826;2023-02-25T17:01:04;99372.59;;;5.47;73.06
26436;BME280;15351;52.408;16.826;2023-02-25T17:03:44;99377.08;;;5.45;72.81
26436;BME280;15351;52.408;16.826;2023-02-25T17:06:16;99384.16;;;5.42;72.46
26436;BME280;15351;52.408;16.826;2023-02-25T17:08:49;99391.13;;;5.39;72.18
26436;BME280;15351;52.408;16.826;2023-02-25T17:11:19;99395.91;;;5.38;71.97
26436;BME280;15351;52.408;16.826;2023-02-25T17:13:49;99405.31;;;5.35;71.88
26436;BME280;15351;52.408;16.826;2023-02-25T17:16:20;99411.96;;;5.35;72.07
26436;BME280;15351;52.408;16.826;2023-02-25T17:18:53;99419.34;;;5.36;71.67
26436;BME280;15351;52.408;16.826;2023-02-25T17:21:27;99426.18;;;5.32;71.66
26436;BME280;15351;52.408;16.826;2023-02-25T17:24:15;99431.02;;;5.28;71.63
26436;BME280;15351;52.408;16.826;2023-02-25T17:26:49;99437.02;;;5.21;71.58
26436;BME280;15351;52.408;16.826;2023-02-25T17:29:17;99448.82;;;5.12;71.91
26436;BME280;15351;52.408;16.826;2023-02-25T17:31:53;99454.27;;;5.11;71.83
26436;BME280;15351;52.408;16.826;2023-02-25T17:34:30;99457.84;;;5.10;71.62
26436;BME280;15351;52.408;16.826;2023-02-25T17:37:05;99466.92;;;5.08;71.78
26436;BME280;15351;52.408;16.826;2023-02-25T17:39:33;99466.86;;;5.05;71.92